sensor_id;sensor_type;location;lat;lon;timestamp;temperature;humidity
21280;DHT22;11764;43.100;25.716;2022-07-12T00:00:36;17.90;99.90
21280;DHT22;11764;43.100;25.716;2022-07-12T00:03:01;17.90;99.90
21280;DHT22;11764;43.100;25.716;2022-07-12T00:05:27;18.00;99.90
21280;DHT22;11764;43.100;25.716;2022-07-12T00:07:52;18.00;99.90
21280;DHT22;11764;43.100;25.716;2022-07-12T00:10:18;18.00;99.90
21280;DHT22;11764;43.100;25.716;2022-07-12T00:12:43;17.90;99.90
21280;DHT22;11764;43.100;25.716;2022-07-12T00:15:09;17.90;99.90
21280;DHT22;11764;43.100;25.716;2022-07-12T00:17:35;17.90;99.90
21280;DHT22;11764;43.100;25.716;2022-07-12T00:20:01;17.90;99.90
21280;DHT22;11764;43.100;25.716;2022-07-12T00:22:26;17.80;99.90
21280;DHT22;11764;43.100;25.716;2022-07-12T00:24:54;17.70;99.90
21280;DHT22;11764;43.100;25.716;2022-07-12T00:27:19;17.70;99.90
21280;DHT22;11764;43.100;25.716;2022-07-12T00:29:45;17.70;99.90
21280;DHT22;11764;43.100;25.716;2022-07-12T00:32:10;17.60;99.90
21280;DHT22;11764;43.100;25.716;2022-07-12T00:34:36;17.60;99.90
21280;DHT22;11764;43.100;25.716;2022-07-12T00:37:02;17.50;99.90
21280;DHT22;11764;43.100;25.716;2022-07-12T00:39:27;17.50;99.90
21280;DHT22;11764;43.100;25.716;2022-07-12T00:41:53;17.50;99.90
21280;DHT22;11764;43.100;25.716;2022-07-12T00:44:19;17.50;99.90
21280;DHT22;11764;43.100;25.716;2022-07-12T00:46:45;17.40;99.90
21280;DHT22;11764;43.100;25.716;2022-07-12T00:49:11;17.40;99.90
21280;DHT22;11764;43.100;25.716;2022-07-12T00:51:43;17.30;99.90
21280;DHT22;11764;43.100;25.716;2022-07-12T00:54:09;17.30;99.90
21280;DHT22;11764;43.100;25.716;2022-07-12T00:56:35;17.30;99.90
21280;DHT22;11764;43.100;25.716;2022-07-12T00:59:01;17.30;99.90
21280;DHT22;11764;43.100;25.716;2022-07-12T01:01:26;17.30;99.90
21280;DHT22;11764;43.100;25.716;2022-07-12T01:03:52;17.20;99.90
21280;DHT22;11764;43.100;25.716;2022-07-12T01:06:21;17.30;99.90
21280;DHT22;11764;43.100;25.716;2022-07-12T01:08:47;17.30;99.90
21280;DHT22;11764;43.100;25.716;2022-07-12T01:11:12;17.40;99.90
21280;DHT22;11764;43.100;25.716;2022-07-12T01:13:38;17.40;99.90
21280;DHT22;11764;43.100;25.716;2022-07-12T01:16:05;17.40;99.90
21280;DHT22;11764;43.100;25.716;2022-07-12T01:18:31;17.40;99.90
21280;DHT22;11764;43.100;25.716;2022-07-12T01:20:59;17.40;99.90
21280;DHT22;11764;43.100;25.716;2022-07-12T01:23:26;17.40;99.90
21280;DHT22;11764;43.100;25.716;2022-07-12T01:25:51;17.40;99.90
21280;DHT22;11764;43.100;25.716;2022-07-12T01:28:17;17.40;99.90
21280;DHT22;11764;43.100;25.716;2022-07-12T01:30:43;17.40;99.90
21280;DHT22;11764;43.100;25.716;2022-07-12T01:33:09;17.30;99.90
21280;DHT22;11764;43.100;25.716;2022-07-12T01:35:34;17.30;99.90
21280;DHT22;11764;43.100;25.716;2022-07-12T01:38:01;17.30;99.90
21280;DHT22;11764;43.100;25.716;2022-07-12T01:40:27;17.20;99.90
21280;DHT22;11764;43.100;25.716;2022-07-12T01:42:52;17.20;99.90
21280;DHT22;11764;43.100;25.716;2022-07-12T01:45:18;17.20;99.90
21280;DHT22;11764;43.100;25.716;2022-07-12T01:47:44;17.30;99.90
21280;DHT22;11764;43.100;25.716;2022-07-12T01:50:10;17.30;99.90
21280;DHT22;11764;43.100;25.716;2022-07-12T01:52:36;17.30;99.90
21280;DHT22;11764;43.100;25.716;2022-07-12T01:55:03;17.30;99.90
21280;DHT22;11764;43.100;25.716;2022-07-12T01:57:29;17.30;99.90
21280;DHT22;11764;43.100;25.716;2022-07-12T01:59:55;17.40;99.90
21280;DHT22;11764;43.100;25.716;2022-07-12T02:02:20;17.30;99.90
21280;DHT22;11764;43.100;25.716;2022-07-12T02:04:46;17.20;99.90
21280;DHT22;11764;43.100;25.716;2022-07-12T02:07:11;17.10;99.90
21280;DHT22;11764;43.100;25.716;2022-07-12T02:09:37;17.00;99.90
21280;DHT22;11764;43.100;25.716;2022-07-12T02:12:03;17.10;99.90
21280;DHT22;11764;43.100;25.716;2022-07-12T02:14:28;16.90;99.90
21280;DHT22;11764;43.100;25.716;2022-07-12T02:16:54;16.90;99.90
21280;DHT22;11764;43.100;25.716;2022-07-12T02:19:19;17.00;99.90
21280;DHT22;11764;43.100;25.716;2022-07-12T02:21:45;17.00;99.90
21280;DHT22;11764;43.100;25.716;2022-07-12T02:24:11;17.00;99.90
21280;DHT22;11764;43.100;25.716;2022-07-12T02:26:36;16.90;99.90
21280;DHT22;11764;43.100;25.716;2022-07-12T02:29:05;16.90;99.90
21280;DHT22;11764;43.100;25.716;2022-07-12T02:31:31;16.90;99.90
21280;DHT22;11764;43.100;25.716;2022-07-12T02:33:57;16.90;99.90
21280;DHT22;11764;43.100;25.716;2022-07-12T02:36:23;16.90;99.90
21280;DHT22;11764;43.100;25.716;2022-07-12T02:38:49;16.80;99.90
21280;DHT22;11764;43.100;25.716;2022-07-12T02:41:14;16.80;99.90
21280;DHT22;11764;43.100;25.716;2022-07-12T02:43:40;16.80;99.90
21280;DHT22;11764;43.100;25.716;2022-07-12T02:48:31;16.70;99.90
21280;DHT22;11764;43.100;25.716;2022-07-12T02:50:57;16.80;99.90
21280;DHT22;11764;43.100;25.716;2022-07-12T02:53:22;16.80;99.90
21280;DHT22;11764;43.100;25.716;2022-07-12T02:55:48;16.80;99.90
21280;DHT22;11764;43.100;25.716;2022-07-12T02:58:14;16.80;99.90
21280;DHT22;11764;43.100;25.716;2022-07-12T03:00:40;16.70;99.90
21280;DHT22;11764;43.100;25.716;2022-07-12T03:03:05;16.70;99.90
21280;DHT22;11764;43.100;25.716;2022-07-12T03:05:34;16.70;99.90
21280;DHT22;11764;43.100;25.716;2022-07-12T03:08:00;16.70;99.90
21280;DHT22;11764;43.100;25.716;2022-07-12T03:10:26;16.80;99.90
21280;DHT22;11764;43.100;25.716;2022-07-12T03:12:52;16.80;99.90
21280;DHT22;11764;43.100;25.716;2022-07-12T03:15:18;16.80;99.90
21280;DHT22;11764;43.100;25.716;2022-07-12T03:17:43;16.80;99.90
21280;DHT22;11764;43.100;25.716;2022-07-12T03:20:10;16.80;99.90
21280;DHT22;11764;43.100;25.716;2022-07-12T03:22:42;16.80;99.90
21280;DHT22;11764;43.100;25.716;2022-07-12T03:25:14;16.90;99.90
21280;DHT22;11764;43.100;25.716;2022-07-12T03:27:40;17.00;99.90
21280;DHT22;11764;43.100;25.716;2022-07-12T03:30:05;17.00;99.90
21280;DHT22;11764;43.100;25.716;2022-07-12T03:32:31;17.00;99.90
21280;DHT22;11764;43.100;25.716;2022-07-12T03:34:57;17.10;99.90
21280;DHT22;11764;43.100;25.716;2022-07-12T03:37:23;17.10;99.90
21280;DHT22;11764;43.100;25.716;2022-07-12T03:39:48;17.20;99.90
21280;DHT22;11764;43.100;25.716;2022-07-12T03:42:14;17.20;99.90
21280;DHT22;11764;43.100;25.716;2022-07-12T03:44:39;17.30;99.90
21280;DHT22;11764;43.100;25.716;2022-07-12T03:47:05;17.30;99.90
21280;DHT22;11764;43.100;25.716;2022-07-12T03:49:30;17.30;99.90
21280;DHT22;11764;43.100;25.716;2022-07-12T03:51:56;17.40;99.90
21280;DHT22;11764;43.100;25.716;2022-07-12T03:54:21;17.50;99.90
21280;DHT22;11764;43.100;25.716;2022-07-12T03:56:47;17.50;99.90
21280;DHT22;11764;43.100;25.716;2022-07-12T03:59:31;17.50;99.90
21280;DHT22;11764;43.100;25.716;2022-07-12T04:01:57;17.60;99.90
21280;DHT22;11764;43.100;25.716;2022-07-12T04:04:23;17.60;99.90
21280;DHT22;11764;43.100;25.716;2022-07-12T04:06:48;17.70;99.90
21280;DHT22;11764;43.100;25.716;2022-07-12T04:09:14;17.80;99.90
21280;DHT22;11764;43.100;25.716;2022-07-12T04:11:39;17.80;99.90
21280;DHT22;11764;43.100;25.716;2022-07-12T04:14:05;17.80;99.90
21280;DHT22;11764;43.100;25.716;2022-07-12T04:16:31;18.00;99.90
21280;DHT22;11764;43.100;25.716;2022-07-12T04:18:56;18.10;99.90
21280;DHT22;11764;43.100;25.716;2022-07-12T04:21:22;18.20;99.90
21280;DHT22;11764;43.100;25.716;2022-07-12T04:23:48;18.20;99.90
21280;DHT22;11764;43.100;25.716;2022-07-12T04:26:13;18.30;99.90
21280;DHT22;11764;43.100;25.716;2022-07-12T04:28:39;18.40;99.90
21280;DHT22;11764;43.100;25.716;2022-07-12T04:31:05;18.50;99.90
21280;DHT22;11764;43.100;25.716;2022-07-12T04:33:32;18.50;99.90
21280;DHT22;11764;43.100;25.716;2022-07-12T04:35:57;18.70;99.90
21280;DHT22;11764;43.100;25.716;2022-07-12T04:38:23;18.50;99.90
21280;DHT22;11764;43.100;25.716;2022-07-12T04:40:48;18.60;99.90
21280;DHT22;11764;43.100;25.716;2022-07-12T04:43:14;18.50;99.90
21280;DHT22;11764;43.100;25.716;2022-07-12T04:45:39;18.60;99.90
21280;DHT22;11764;43.100;25.716;2022-07-12T04:48:12;18.60;99.90
21280;DHT22;11764;43.100;25.716;2022-07-12T04:50:38;18.70;99.90
21280;DHT22;11764;43.100;25.716;2022-07-12T04:53:03;18.70;99.90
21280;DHT22;11764;43.100;25.716;2022-07-12T04:55:29;18.70;99.90
21280;DHT22;11764;43.100;25.716;2022-07-12T04:57:55;18.80;99.90
21280;DHT22;11764;43.100;25.716;2022-07-12T05:00:21;18.80;99.90
21280;DHT22;11764;43.100;25.716;2022-07-12T05:02:46;18.80;99.90
21280;DHT22;11764;43.100;25.716;2022-07-12T05:05:12;19.00;99.90
21280;DHT22;11764;43.100;25.716;2022-07-12T05:07:37;19.10;99.90
21280;DHT22;11764;43.100;25.716;2022-07-12T05:10:03;19.00;99.90
21280;DHT22;11764;43.100;25.716;2022-07-12T05:12:29;19.10;99.90
21280;DHT22;11764;43.100;25.716;2022-07-12T05:14:55;18.90;99.90
21280;DHT22;11764;43.100;25.716;2022-07-12T05:17:20;19.00;99.90
21280;DHT22;11764;43.100;25.716;2022-07-12T05:19:46;19.20;99.90
21280;DHT22;11764;43.100;25.716;2022-07-12T05:22:13;19.30;99.90
21280;DHT22;11764;43.100;25.716;2022-07-12T05:24:39;19.40;99.90
21280;DHT22;11764;43.100;25.716;2022-07-12T05:27:05;19.50;99.90
21280;DHT22;11764;43.100;25.716;2022-07-12T05:29:30;19.40;99.90
21280;DHT22;11764;43.100;25.716;2022-07-12T05:31:56;19.60;99.90
21280;DHT22;11764;43.100;25.716;2022-07-12T05:34:22;19.60;99.90
21280;DHT22;11764;43.100;25.716;2022-07-12T05:36:48;19.70;99.90
21280;DHT22;11764;43.100;25.716;2022-07-12T05:39:13;19.90;99.90
21280;DHT22;11764;43.100;25.716;2022-07-12T05:41:39;19.80;99.90
21280;DHT22;11764;43.100;25.716;2022-07-12T05:44:04;20.00;99.90
21280;DHT22;11764;43.100;25.716;2022-07-12T05:46:30;20.30;99.90
21280;DHT22;11764;43.100;25.716;2022-07-12T05:48:56;20.20;99.90
21280;DHT22;11764;43.100;25.716;2022-07-12T05:51:21;20.40;99.90
21280;DHT22;11764;43.100;25.716;2022-07-12T05:54:05;20.80;99.90
21280;DHT22;11764;43.100;25.716;2022-07-12T05:56:31;21.20;99.90
21280;DHT22;11764;43.100;25.716;2022-07-12T05:58:56;21.40;99.90
21280;DHT22;11764;43.100;25.716;2022-07-12T06:01:22;21.40;99.90
21280;DHT22;11764;43.100;25.716;2022-07-12T06:03:47;20.90;99.90
21280;DHT22;11764;43.100;25.716;2022-07-12T06:06:13;21.00;99.90
21280;DHT22;11764;43.100;25.716;2022-07-12T06:08:39;20.80;99.90
21280;DHT22;11764;43.100;25.716;2022-07-12T06:11:04;20.80;99.90
21280;DHT22;11764;43.100;25.716;2022-07-12T06:13:30;20.80;99.90
21280;DHT22;11764;43.100;25.716;2022-07-12T06:15:55;20.90;99.90
21280;DHT22;11764;43.100;25.716;2022-07-12T06:18:21;20.80;99.90
21280;DHT22;11764;43.100;25.716;2022-07-12T06:20:47;20.70;99.90
21280;DHT22;11764;43.100;25.716;2022-07-12T06:23:12;20.60;99.90
21280;DHT22;11764;43.100;25.716;2022-07-12T06:25:38;21.00;99.90
21280;DHT22;11764;43.100;25.716;2022-07-12T06:28:04;21.00;99.90
21280;DHT22;11764;43.100;25.716;2022-07-12T06:30:29;20.80;99.90
21280;DHT22;11764;43.100;25.716;2022-07-12T06:32:55;20.90;99.90
21280;DHT22;11764;43.100;25.716;2022-07-12T06:35:21;20.90;99.90
21280;DHT22;11764;43.100;25.716;2022-07-12T06:37:47;21.00;99.90
21280;DHT22;11764;43.100;25.716;2022-07-12T06:40:12;21.00;99.90
21280;DHT22;11764;43.100;25.716;2022-07-12T06:42:40;20.90;99.90
21280;DHT22;11764;43.100;25.716;2022-07-12T06:45:06;21.00;99.90
21280;DHT22;11764;43.100;25.716;2022-07-12T06:47:32;21.20;99.90
21280;DHT22;11764;43.100;25.716;2022-07-12T06:49:57;21.20;99.90
21280;DHT22;11764;43.100;25.716;2022-07-12T06:52:23;21.60;99.90
21280;DHT22;11764;43.100;25.716;2022-07-12T06:54:48;21.60;99.90
21280;DHT22;11764;43.100;25.716;2022-07-12T06:57:14;21.50;99.90
21280;DHT22;11764;43.100;25.716;2022-07-12T06:59:39;21.50;99.90
21280;DHT22;11764;43.100;25.716;2022-07-12T07:02:05;21.50;99.90
21280;DHT22;11764;43.100;25.716;2022-07-12T07:04:30;21.60;99.90
21280;DHT22;11764;43.100;25.716;2022-07-12T07:06:56;21.70;99.90
21280;DHT22;11764;43.100;25.716;2022-07-12T07:09:22;21.80;99.90
21280;DHT22;11764;43.100;25.716;2022-07-12T07:11:47;22.00;99.90
21280;DHT22;11764;43.100;25.716;2022-07-12T07:14:13;22.10;99.90
21280;DHT22;11764;43.100;25.716;2022-07-12T07:16:38;21.70;99.90
21280;DHT22;11764;43.100;25.716;2022-07-12T07:19:04;21.90;99.90
21280;DHT22;11764;43.100;25.716;2022-07-12T07:21:31;22.10;99.90
21280;DHT22;11764;43.100;25.716;2022-07-12T07:23:56;22.10;99.90
21280;DHT22;11764;43.100;25.716;2022-07-12T07:26:22;22.20;99.90
21280;DHT22;11764;43.100;25.716;2022-07-12T07:28:47;22.10;99.90
21280;DHT22;11764;43.100;25.716;2022-07-12T07:31:35;22.40;99.90
21280;DHT22;11764;43.100;25.716;2022-07-12T07:34:01;22.20;99.90
21280;DHT22;11764;43.100;25.716;2022-07-12T07:36:26;22.30;99.90
21280;DHT22;11764;43.100;25.716;2022-07-12T07:38:52;22.20;99.90
21280;DHT22;11764;43.100;25.716;2022-07-12T07:41:18;22.20;99.90
21280;DHT22;11764;43.100;25.716;2022-07-12T07:43:43;22.40;99.90
21280;DHT22;11764;43.100;25.716;2022-07-12T07:46:09;22.10;99.90
21280;DHT22;11764;43.100;25.716;2022-07-12T07:48:34;22.50;99.90
21280;DHT22;11764;43.100;25.716;2022-07-12T07:51:00;22.60;99.90
21280;DHT22;11764;43.100;25.716;2022-07-12T07:53:25;22.40;99.90
21280;DHT22;11764;43.100;25.716;2022-07-12T07:55:51;22.90;99.90
21280;DHT22;11764;43.100;25.716;2022-07-12T07:58:16;23.20;99.90
21280;DHT22;11764;43.100;25.716;2022-07-12T08:00:42;23.40;99.90
21280;DHT22;11764;43.100;25.716;2022-07-12T08:03:08;23.40;99.90
21280;DHT22;11764;43.100;25.716;2022-07-12T08:05:33;23.20;99.90
21280;DHT22;11764;43.100;25.716;2022-07-12T08:07:59;23.00;99.90
21280;DHT22;11764;43.100;25.716;2022-07-12T08:10:25;23.10;99.90
21280;DHT22;11764;43.100;25.716;2022-07-12T08:12:50;22.70;99.90
21280;DHT22;11764;43.100;25.716;2022-07-12T08:15:16;22.40;99.90
21280;DHT22;11764;43.100;25.716;2022-07-12T08:17:41;22.70;99.90
21280;DHT22;11764;43.100;25.716;2022-07-12T08:20:07;23.00;99.90
21280;DHT22;11764;43.100;25.716;2022-07-12T08:22:33;23.10;99.90
21280;DHT22;11764;43.100;25.716;2022-07-12T08:24:59;23.30;99.90
21280;DHT22;11764;43.100;25.716;2022-07-12T08:27:24;22.80;99.90
21280;DHT22;11764;43.100;25.716;2022-07-12T08:29:50;22.70;99.90
21280;DHT22;11764;43.100;25.716;2022-07-12T08:32:16;22.90;99.90
21280;DHT22;11764;43.100;25.716;2022-07-12T08:34:41;22.90;99.90
21280;DHT22;11764;43.100;25.716;2022-07-12T08:37:07;22.80;99.90
21280;DHT22;11764;43.100;25.716;2022-07-12T08:39:33;23.30;99.90
21280;DHT22;11764;43.100;25.716;2022-07-12T08:41:59;23.60;99.90
21280;DHT22;11764;43.100;25.716;2022-07-12T08:44:24;23.50;99.90
21280;DHT22;11764;43.100;25.716;2022-07-12T08:46:50;23.10;99.90
21280;DHT22;11764;43.100;25.716;2022-07-12T08:49:17;23.10;99.90
21280;DHT22;11764;43.100;25.716;2022-07-12T08:51:43;23.20;99.90
21280;DHT22;11764;43.100;25.716;2022-07-12T08:54:10;23.50;99.90
21280;DHT22;11764;43.100;25.716;2022-07-12T08:56:37;23.70;99.70
21280;DHT22;11764;43.100;25.716;2022-07-12T08:59:13;23.80;98.90
21280;DHT22;11764;43.100;25.716;2022-07-12T09:01:43;23.80;98.70
21280;DHT22;11764;43.100;25.716;2022-07-12T09:04:09;23.70;99.30
21280;DHT22;11764;43.100;25.716;2022-07-12T09:06:34;24.20;98.70
21280;DHT22;11764;43.100;25.716;2022-07-12T09:09:00;24.30;97.80
21280;DHT22;11764;43.100;25.716;2022-07-12T09:11:26;24.40;97.10
21280;DHT22;11764;43.100;25.716;2022-07-12T09:13:54;23.80;98.30
21280;DHT22;11764;43.100;25.716;2022-07-12T09:16:22;23.60;98.80
21280;DHT22;11764;43.100;25.716;2022-07-12T09:18:48;23.60;99.10
21280;DHT22;11764;43.100;25.716;2022-07-12T09:21:26;23.60;99.10
21280;DHT22;11764;43.100;25.716;2022-07-12T09:23:53;23.80;99.30
21280;DHT22;11764;43.100;25.716;2022-07-12T09:26:19;23.90;98.80
21280;DHT22;11764;43.100;25.716;2022-07-12T09:28:45;23.80;98.30
21280;DHT22;11764;43.100;25.716;2022-07-12T09:31:14;24.00;97.30
21280;DHT22;11764;43.100;25.716;2022-07-12T09:33:39;24.00;98.90
21280;DHT22;11764;43.100;25.716;2022-07-12T09:36:23;24.10;96.90
21280;DHT22;11764;43.100;25.716;2022-07-12T09:38:49;24.40;96.30
21280;DHT22;11764;43.100;25.716;2022-07-12T09:41:19;23.80;96.10
21280;DHT22;11764;43.100;25.716;2022-07-12T09:43:45;24.00;96.80
21280;DHT22;11764;43.100;25.716;2022-07-12T09:46:10;24.50;95.00
21280;DHT22;11764;43.100;25.716;2022-07-12T09:48:36;24.40;94.90
21280;DHT22;11764;43.100;25.716;2022-07-12T09:51:02;24.60;95.00
21280;DHT22;11764;43.100;25.716;2022-07-12T09:53:29;24.50;95.60
21280;DHT22;11764;43.100;25.716;2022-07-12T09:55:57;24.30;94.70
21280;DHT22;11764;43.100;25.716;2022-07-12T09:58:27;24.30;95.70
21280;DHT22;11764;43.100;25.716;2022-07-12T10:00:55;24.30;95.50
21280;DHT22;11764;43.100;25.716;2022-07-12T10:03:25;24.80;94.30
21280;DHT22;11764;43.100;25.716;2022-07-12T10:05:53;24.60;93.50
21280;DHT22;11764;43.100;25.716;2022-07-12T10:08:20;24.70;93.40
21280;DHT22;11764;43.100;25.716;2022-07-12T10:10:46;24.70;93.60
21280;DHT22;11764;43.100;25.716;2022-07-12T10:13:12;24.70;94.80
21280;DHT22;11764;43.100;25.716;2022-07-12T10:15:38;24.90;94.20
21280;DHT22;11764;43.100;25.716;2022-07-12T10:18:04;24.80;93.10
21280;DHT22;11764;43.100;25.716;2022-07-12T10:20:30;24.60;93.50
21280;DHT22;11764;43.100;25.716;2022-07-12T10:25:41;24.20;94.00
21280;DHT22;11764;43.100;25.716;2022-07-12T10:28:06;25.00;92.10
21280;DHT22;11764;43.100;25.716;2022-07-12T10:30:40;25.20;92.10
21280;DHT22;11764;43.100;25.716;2022-07-12T10:33:14;24.40;92.50
21280;DHT22;11764;43.100;25.716;2022-07-12T10:35:39;23.90;92.20
21280;DHT22;11764;43.100;25.716;2022-07-12T10:38:22;24.40;94.00
21280;DHT22;11764;43.100;25.716;2022-07-12T10:40:48;24.70;91.20
21280;DHT22;11764;43.100;25.716;2022-07-12T10:43:15;25.00;91.80
21280;DHT22;11764;43.100;25.716;2022-07-12T10:45:42;24.70;91.60
21280;DHT22;11764;43.100;25.716;2022-07-12T10:48:08;24.40;90.80
21280;DHT22;11764;43.100;25.716;2022-07-12T10:58:33;24.40;90.40
21280;DHT22;11764;43.100;25.716;2022-07-12T11:00:59;24.80;88.80
21280;DHT22;11764;43.100;25.716;2022-07-12T11:03:29;25.20;88.20
21280;DHT22;11764;43.100;25.716;2022-07-12T11:06:00;24.70;85.00
21280;DHT22;11764;43.100;25.716;2022-07-12T11:08:27;24.50;85.80
21280;DHT22;11764;43.100;25.716;2022-07-12T11:10:58;24.70;90.70
21280;DHT22;11764;43.100;25.716;2022-07-12T11:13:24;24.90;90.30
21280;DHT22;11764;43.100;25.716;2022-07-12T11:16:00;25.10;90.40
21280;DHT22;11764;43.100;25.716;2022-07-12T11:20:56;24.50;90.30
21280;DHT22;11764;43.100;25.716;2022-07-12T11:23:21;24.60;89.60
21280;DHT22;11764;43.100;25.716;2022-07-12T11:25:48;25.10;86.50
21280;DHT22;11764;43.100;25.716;2022-07-12T11:28:13;25.40;81.70
21280;DHT22;11764;43.100;25.716;2022-07-12T11:30:47;25.60;84.10
21280;DHT22;11764;43.100;25.716;2022-07-12T11:33:12;25.50;85.20
21280;DHT22;11764;43.100;25.716;2022-07-12T11:35:38;25.40;84.10
21280;DHT22;11764;43.100;25.716;2022-07-12T11:38:04;25.20;85.40
21280;DHT22;11764;43.100;25.716;2022-07-12T11:40:30;25.40;84.80
21280;DHT22;11764;43.100;25.716;2022-07-12T11:42:56;25.20;82.60
21280;DHT22;11764;43.100;25.716;2022-07-12T11:45:24;25.10;81.90
21280;DHT22;11764;43.100;25.716;2022-07-12T11:47:49;25.00;82.70
21280;DHT22;11764;43.100;25.716;2022-07-12T11:50:16;25.30;82.60
21280;DHT22;11764;43.100;25.716;2022-07-12T11:52:42;25.30;80.20
21280;DHT22;11764;43.100;25.716;2022-07-12T11:55:08;25.40;80.80
21280;DHT22;11764;43.100;25.716;2022-07-12T11:57:34;25.30;82.30
21280;DHT22;11764;43.100;25.716;2022-07-12T12:00:16;25.10;81.60
21280;DHT22;11764;43.100;25.716;2022-07-12T12:02:42;25.00;82.30
21280;DHT22;11764;43.100;25.716;2022-07-12T12:05:07;25.10;83.70
21280;DHT22;11764;43.100;25.716;2022-07-12T12:07:33;25.10;80.70
21280;DHT22;11764;43.100;25.716;2022-07-12T12:15:09;25.50;78.10
21280;DHT22;11764;43.100;25.716;2022-07-12T12:17:35;25.50;78.90
21280;DHT22;11764;43.100;25.716;2022-07-12T12:20:08;25.60;80.30
21280;DHT22;11764;43.100;25.716;2022-07-12T12:22:34;26.00;79.70
21280;DHT22;11764;43.100;25.716;2022-07-12T12:25:00;25.50;76.10
21280;DHT22;11764;43.100;25.716;2022-07-12T12:27:26;25.40;76.60
21280;DHT22;11764;43.100;25.716;2022-07-12T12:29:51;25.20;79.00
21280;DHT22;11764;43.100;25.716;2022-07-12T12:32:17;25.50;76.40
21280;DHT22;11764;43.100;25.716;2022-07-12T12:35:04;25.40;76.50
21280;DHT22;11764;43.100;25.716;2022-07-12T12:37:28;25.20;74.70
21280;DHT22;11764;43.100;25.716;2022-07-12T12:39:54;25.10;74.70
21280;DHT22;11764;43.100;25.716;2022-07-12T12:42:23;24.80;77.50
21280;DHT22;11764;43.100;25.716;2022-07-12T12:44:49;25.10;76.10
21280;DHT22;11764;43.100;25.716;2022-07-12T12:47:14;25.50;76.00
21280;DHT22;11764;43.100;25.716;2022-07-12T12:49:58;25.70;73.50
21280;DHT22;11764;43.100;25.716;2022-07-12T12:52:30;25.20;75.30
21280;DHT22;11764;43.100;25.716;2022-07-12T12:54:57;25.00;74.70
21280;DHT22;11764;43.100;25.716;2022-07-12T12:57:23;25.20;73.50
21280;DHT22;11764;43.100;25.716;2022-07-12T12:59:51;25.50;73.80
21280;DHT22;11764;43.100;25.716;2022-07-12T13:02:17;25.70;73.80
21280;DHT22;11764;43.100;25.716;2022-07-12T13:04:42;25.30;72.30
21280;DHT22;11764;43.100;25.716;2022-07-12T13:07:08;25.60;73.50
21280;DHT22;11764;43.100;25.716;2022-07-12T13:09:33;25.60;72.60
21280;DHT22;11764;43.100;25.716;2022-07-12T13:11:59;25.60;69.40
21280;DHT22;11764;43.100;25.716;2022-07-12T13:14:25;25.50;70.60
21280;DHT22;11764;43.100;25.716;2022-07-12T13:16:51;26.10;71.00
21280;DHT22;11764;43.100;25.716;2022-07-12T13:19:17;26.60;70.30
21280;DHT22;11764;43.100;25.716;2022-07-12T13:21:42;26.90;69.00
21280;DHT22;11764;43.100;25.716;2022-07-12T13:24:08;26.30;72.30
21280;DHT22;11764;43.100;25.716;2022-07-12T13:26:33;25.20;72.30
21280;DHT22;11764;43.100;25.716;2022-07-12T13:28:59;25.50;73.40
21280;DHT22;11764;43.100;25.716;2022-07-12T13:31:25;25.70;72.80
21280;DHT22;11764;43.100;25.716;2022-07-12T13:33:51;25.80;70.70
21280;DHT22;11764;43.100;25.716;2022-07-12T13:36:17;25.80;72.40
21280;DHT22;11764;43.100;25.716;2022-07-12T13:38:42;25.80;70.50
21280;DHT22;11764;43.100;25.716;2022-07-12T13:41:08;26.10;70.90
21280;DHT22;11764;43.100;25.716;2022-07-12T13:43:34;25.90;74.40
21280;DHT22;11764;43.100;25.716;2022-07-12T13:45:59;26.00;72.20
21280;DHT22;11764;43.100;25.716;2022-07-12T13:48:25;26.00;73.80
21280;DHT22;11764;43.100;25.716;2022-07-12T13:50:51;25.80;72.40
21280;DHT22;11764;43.100;25.716;2022-07-12T13:53:16;25.50;71.70
21280;DHT22;11764;43.100;25.716;2022-07-12T13:55:45;25.50;73.00
21280;DHT22;11764;43.100;25.716;2022-07-12T13:58:11;25.40;73.90
21280;DHT22;11764;43.100;25.716;2022-07-12T14:00:39;25.10;74.50
21280;DHT22;11764;43.100;25.716;2022-07-12T14:03:05;24.90;74.40
21280;DHT22;11764;43.100;25.716;2022-07-12T14:05:31;24.80;74.10
21280;DHT22;11764;43.100;25.716;2022-07-12T14:07:56;24.60;74.70
21280;DHT22;11764;43.100;25.716;2022-07-12T14:10:22;24.50;75.10
21280;DHT22;11764;43.100;25.716;2022-07-12T14:12:47;24.70;75.70
21280;DHT22;11764;43.100;25.716;2022-07-12T14:15:14;24.90;75.00
21280;DHT22;11764;43.100;25.716;2022-07-12T14:17:44;25.30;75.20
21280;DHT22;11764;43.100;25.716;2022-07-12T14:20:10;25.30;75.10
21280;DHT22;11764;43.100;25.716;2022-07-12T14:22:37;25.10;76.00
21280;DHT22;11764;43.100;25.716;2022-07-12T14:25:03;25.10;75.50
21280;DHT22;11764;43.100;25.716;2022-07-12T14:27:30;24.90;76.50
21280;DHT22;11764;43.100;25.716;2022-07-12T14:29:56;24.60;77.60
21280;DHT22;11764;43.100;25.716;2022-07-12T14:32:21;24.50;77.30
21280;DHT22;11764;43.100;25.716;2022-07-12T14:34:47;24.50;76.40
21280;DHT22;11764;43.100;25.716;2022-07-12T14:37:12;24.30;76.30
21280;DHT22;11764;43.100;25.716;2022-07-12T14:39:38;24.50;75.40
21280;DHT22;11764;43.100;25.716;2022-07-12T14:42:04;24.70;76.70
21280;DHT22;11764;43.100;25.716;2022-07-12T14:44:30;24.60;75.10
21280;DHT22;11764;43.100;25.716;2022-07-12T14:46:55;24.70;73.00
21280;DHT22;11764;43.100;25.716;2022-07-12T14:49:21;24.70;72.60
21280;DHT22;11764;43.100;25.716;2022-07-12T14:51:47;25.00;74.30
21280;DHT22;11764;43.100;25.716;2022-07-12T14:54:12;24.70;76.30
21280;DHT22;11764;43.100;25.716;2022-07-12T14:56:38;24.50;77.30
21280;DHT22;11764;43.100;25.716;2022-07-12T14:59:03;24.50;77.10
21280;DHT22;11764;43.100;25.716;2022-07-12T15:01:29;25.00;76.20
21280;DHT22;11764;43.100;25.716;2022-07-12T15:03:54;25.60;75.30
21280;DHT22;11764;43.100;25.716;2022-07-12T15:06:20;25.90;72.80
21280;DHT22;11764;43.100;25.716;2022-07-12T15:08:46;25.30;72.30
21280;DHT22;11764;43.100;25.716;2022-07-12T15:11:12;25.90;73.80
21280;DHT22;11764;43.100;25.716;2022-07-12T15:13:37;25.90;73.30
21280;DHT22;11764;43.100;25.716;2022-07-12T15:16:03;25.00;74.30
21280;DHT22;11764;43.100;25.716;2022-07-12T15:18:29;24.60;75.40
21280;DHT22;11764;43.100;25.716;2022-07-12T15:20:54;24.50;76.80
21280;DHT22;11764;43.100;25.716;2022-07-12T15:23:20;24.40;76.60
21280;DHT22;11764;43.100;25.716;2022-07-12T15:25:46;25.10;75.20
21280;DHT22;11764;43.100;25.716;2022-07-12T15:28:11;25.80;73.60
21280;DHT22;11764;43.100;25.716;2022-07-12T15:30:37;26.20;72.30